sensor_id;sensor_type;location;lat;lon;timestamp;P1;durP1;ratioP1;P2;durP2;ratioP2
50225;SDS011;36113;50.742;6.432;2022-11-14T00:02:16;2.60;;;2.40;;
50225;SDS011;36113;50.742;6.432;2022-11-14T00:04:45;3.28;;;3.08;;
50225;SDS011;36113;50.742;6.432;2022-11-14T00:07:11;3.10;;;2.85;;
50225;SDS011;36113;50.742;6.432;2022-11-14T00:09:36;3.97;;;3.40;;
50225;SDS011;36113;50.742;6.432;2022-11-14T00:12:02;3.13;;;2.83;;
50225;SDS011;36113;50.742;6.432;2022-11-14T00:14:28;2.97;;;2.78;;
50225;SDS011;36113;50.742;6.432;2022-11-14T00:16:53;3.50;;;3.20;;
50225;SDS011;36113;50.742;6.432;2022-11-14T00:19:19;3.75;;;3.05;;
50225;SDS011;36113;50.742;6.432;2022-11-14T00:21:44;4.60;;;3.30;;
50225;SDS011;36113;50.742;6.432;2022-11-14T00:24:10;3.50;;;3.20;;
50225;SDS011;36113;50.742;6.432;2022-11-14T00:26:36;3.75;;;3.03;;
50225;SDS011;36113;50.742;6.432;2022-11-14T00:29:01;3.83;;;3.20;;
50225;SDS011;36113;50.742;6.432;2022-11-14T00:31:26;3.67;;;3.08;;
50225;SDS011;36113;50.742;6.432;2022-11-14T00:33:52;4.07;;;3.00;;
50225;SDS011;36113;50.742;6.432;2022-11-14T00:36:17;4.80;;;3.35;;
50225;SDS011;36113;50.742;6.432;2022-11-14T00:38:42;5.40;;;3.38;;
50225;SDS011;36113;50.742;6.432;2022-11-14T00:41:07;3.33;;;3.03;;
50225;SDS011;36113;50.742;6.432;2022-11-14T00:43:33;3.58;;;3.28;;
50225;SDS011;36113;50.742;6.432;2022-11-14T00:45:58;3.97;;;3.67;;
50225;SDS011;36113;50.742;6.432;2022-11-14T00:48:23;3.58;;;3.28;;
50225;SDS011;36113;50.742;6.432;2022-11-14T00:50:48;4.13;;;3.72;;
50225;SDS011;36113;50.742;6.432;2022-11-14T00:53:14;4.03;;;3.72;;
50225;SDS011;36113;50.742;6.432;2022-11-14T00:55:40;3.55;;;3.25;;
50225;SDS011;36113;50.742;6.432;2022-11-14T00:58:05;5.53;;;3.35;;
50225;SDS011;36113;50.742;6.432;2022-11-14T01:00:30;4.15;;;3.75;;
50225;SDS011;36113;50.742;6.432;2022-11-14T01:02:56;3.60;;;3.30;;
50225;SDS011;36113;50.742;6.432;2022-11-14T01:05:22;4.25;;;3.90;;
50225;SDS011;36113;50.742;6.432;2022-11-14T01:07:49;3.60;;;3.30;;
50225;SDS011;36113;50.742;6.432;2022-11-14T01:10:15;4.18;;;3.60;;
50225;SDS011;36113;50.742;6.432;2022-11-14T01:12:41;3.40;;;3.10;;
50225;SDS011;36113;50.742;6.432;2022-11-14T01:15:06;4.00;;;3.42;;
50225;SDS011;36113;50.742;6.432;2022-11-14T01:17:32;4.40;;;3.35;;
50225;SDS011;36113;50.742;6.432;2022-11-14T01:19:57;4.10;;;3.70;;
50225;SDS011;36113;50.742;6.432;2022-11-14T01:22:23;8.02;;;4.03;;
50225;SDS011;36113;50.742;6.432;2022-11-14T01:24:48;6.30;;;3.30;;
50225;SDS011;36113;50.742;6.432;2022-11-14T01:27:13;3.67;;;3.25;;
50225;SDS011;36113;50.742;6.432;2022-11-14T01:29:39;4.30;;;3.15;;
50225;SDS011;36113;50.742;6.432;2022-11-14T01:32:04;4.07;;;3.47;;
50225;SDS011;36113;50.742;6.432;2022-11-14T01:34:30;4.43;;;3.47;;
50225;SDS011;36113;50.742;6.432;2022-11-14T01:36:55;3.80;;;3.42;;
50225;SDS011;36113;50.742;6.432;2022-11-14T01:39:21;4.80;;;3.60;;
50225;SDS011;36113;50.742;6.432;2022-11-14T01:41:46;6.47;;;3.22;;
50225;SDS011;36113;50.742;6.432;2022-11-14T01:44:15;3.60;;;3.30;;
50225;SDS011;36113;50.742;6.432;2022-11-14T01:46:42;4.22;;;3.78;;
50225;SDS011;36113;50.742;6.432;2022-11-14T01:49:16;5.38;;;3.80;;
50225;SDS011;36113;50.742;6.432;2022-11-14T01:51:47;3.90;;;3.20;;
50225;SDS011;36113;50.742;6.432;2022-11-14T01:54:20;3.72;;;3.42;;
50225;SDS011;36113;50.742;6.432;2022-11-14T01:56:57;4.03;;;3.53;;
50225;SDS011;36113;50.742;6.432;2022-11-14T01:59:28;7.07;;;3.95;;
50225;SDS011;36113;50.742;6.432;2022-11-14T02:01:58;3.95;;;3.58;;
50225;SDS011;36113;50.742;6.432;2022-11-14T02:04:29;3.83;;;3.53;;
50225;SDS011;36113;50.742;6.432;2022-11-14T02:06:58;4.20;;;3.80;;
50225;SDS011;36113;50.742;6.432;2022-11-14T02:09:27;4.55;;;3.85;;
50225;SDS011;36113;50.742;6.432;2022-11-14T02:11:56;5.15;;;3.55;;
50225;SDS011;36113;50.742;6.432;2022-11-14T02:14:25;3.75;;;3.33;;
50225;SDS011;36113;50.742;6.432;2022-11-14T02:16:51;5.72;;;3.78;;
50225;SDS011;36113;50.742;6.432;2022-11-14T02:19:17;4.38;;;3.78;;
50225;SDS011;36113;50.742;6.432;2022-11-14T02:21:43;4.50;;;4.00;;
50225;SDS011;36113;50.742;6.432;2022-11-14T02:24:09;4.32;;;3.95;;
50225;SDS011;36113;50.742;6.432;2022-11-14T02:26:35;5.03;;;3.65;;
50225;SDS011;36113;50.742;6.432;2022-11-14T02:29:01;3.97;;;3.57;;
50225;SDS011;36113;50.742;6.432;2022-11-14T02:31:26;3.75;;;3.35;;
50225;SDS011;36113;50.742;6.432;2022-11-14T02:33:51;4.50;;;3.38;;
50225;SDS011;36113;50.742;6.432;2022-11-14T02:36:17;4.38;;;3.33;;
50225;SDS011;36113;50.742;6.432;2022-11-14T02:38:42;3.95;;;3.65;;
50225;SDS011;36113;50.742;6.432;2022-11-14T02:41:07;4.20;;;3.80;;
50225;SDS011;36113;50.742;6.432;2022-11-14T02:43:33;5.00;;;3.72;;
50225;SDS011;36113;50.742;6.432;2022-11-14T02:45:58;4.32;;;3.92;;
50225;SDS011;36113;50.742;6.432;2022-11-14T02:48:23;3.67;;;3.38;;
50225;SDS011;36113;50.742;6.432;2022-11-14T02:50:49;4.90;;;3.83;;
50225;SDS011;36113;50.742;6.432;2022-11-14T02:53:14;4.13;;;3.83;;
50225;SDS011;36113;50.742;6.432;2022-11-14T02:55:40;4.25;;;3.85;;
50225;SDS011;36113;50.742;6.432;2022-11-14T02:58:05;4.25;;;3.85;;
50225;SDS011;36113;50.742;6.432;2022-11-14T03:00:31;4.17;;;3.80;;
50225;SDS011;36113;50.742;6.432;2022-11-14T03:02:57;3.80;;;3.50;;
50225;SDS011;36113;50.742;6.432;2022-11-14T03:05:22;3.53;;;3.22;;
50225;SDS011;36113;50.742;6.432;2022-11-14T03:07:48;5.30;;;3.85;;
50225;SDS011;36113;50.742;6.432;2022-11-14T03:10:17;4.28;;;3.97;;
50225;SDS011;36113;50.742;6.432;2022-11-14T03:12:43;4.53;;;4.05;;
50225;SDS011;36113;50.742;6.432;2022-11-14T03:15:08;5.95;;;4.40;;
50225;SDS011;36113;50.742;6.432;2022-11-14T03:17:34;5.15;;;3.90;;
50225;SDS011;36113;50.742;6.432;2022-11-14T03:19:59;4.32;;;3.92;;
50225;SDS011;36113;50.742;6.432;2022-11-14T03:22:25;6.20;;;4.18;;
50225;SDS011;36113;50.742;6.432;2022-11-14T03:24:51;4.22;;;3.92;;
50225;SDS011;36113;50.742;6.432;2022-11-14T03:27:16;5.53;;;4.07;;
50225;SDS011;36113;50.742;6.432;2022-11-14T03:29:42;7.05;;;5.03;;
50225;SDS011;36113;50.742;6.432;2022-11-14T03:32:07;5.43;;;4.97;;
50225;SDS011;36113;50.742;6.432;2022-11-14T03:34:32;6.80;;;4.60;;
50225;SDS011;36113;50.742;6.432;2022-11-14T03:36:58;3.67;;;3.38;;
50225;SDS011;36113;50.742;6.432;2022-11-14T03:39:24;4.17;;;3.50;;
50225;SDS011;36113;50.742;6.432;2022-11-14T03:41:50;4.70;;;3.90;;
50225;SDS011;36113;50.742;6.432;2022-11-14T03:44:15;4.80;;;3.85;;
50225;SDS011;36113;50.742;6.432;2022-11-14T03:46:40;3.67;;;3.38;;
50225;SDS011;36113;50.742;6.432;2022-11-14T03:49:06;5.03;;;3.90;;
50225;SDS011;36113;50.742;6.432;2022-11-14T03:51:31;4.05;;;3.42;;
50225;SDS011;36113;50.742;6.432;2022-11-14T03:53:57;4.50;;;3.63;;
50225;SDS011;36113;50.742;6.432;2022-11-14T03:56:22;5.47;;;4.07;;
50225;SDS011;36113;50.742;6.432;2022-11-14T03:58:47;4.38;;;3.90;;
50225;SDS011;36113;50.742;6.432;2022-11-14T04:01:12;4.53;;;4.13;;
50225;SDS011;36113;50.742;6.432;2022-11-14T04:03:38;4.80;;;4.30;;
50225;SDS011;36113;50.742;6.432;2022-11-14T04:06:03;4.00;;;3.40;;
50225;SDS011;36113;50.742;6.432;2022-11-14T04:08:29;4.93;;;3.92;;
50225;SDS011;36113;50.742;6.432;2022-11-14T04:10:54;4.65;;;4.15;;
50225;SDS011;36113;50.742;6.432;2022-11-14T04:13:19;4.57;;;4.18;;
50225;SDS011;36113;50.742;6.432;2022-11-14T04:15:44;4.20;;;3.90;;
50225;SDS011;36113;50.742;6.432;2022-11-14T04:18:10;3.97;;;3.67;;
50225;SDS011;36113;50.742;6.432;2022-11-14T04:20:35;3.88;;;3.40;;
50225;SDS011;36113;50.742;6.432;2022-11-14T04:23:01;4.13;;;3.72;;
50225;SDS011;36113;50.742;6.432;2022-11-14T04:25:26;5.45;;;4.25;;
50225;SDS011;36113;50.742;6.432;2022-11-14T04:27:51;5.00;;;4.38;;
50225;SDS011;36113;50.742;6.432;2022-11-14T04:30:17;4.80;;;4.03;;
50225;SDS011;36113;50.742;6.432;2022-11-14T04:32:43;4.30;;;3.33;;
50225;SDS011;36113;50.742;6.432;2022-11-14T04:35:09;4.43;;;4.03;;
50225;SDS011;36113;50.742;6.432;2022-11-14T04:37:34;3.92;;;3.40;;
50225;SDS011;36113;50.742;6.432;2022-11-14T04:40:02;4.22;;;3.92;;
50225;SDS011;36113;50.742;6.432;2022-11-14T04:42:28;3.97;;;3.65;;
50225;SDS011;36113;50.742;6.432;2022-11-14T04:44:53;3.90;;;3.60;;
50225;SDS011;36113;50.742;6.432;2022-11-14T04:47:19;6.50;;;3.85;;
50225;SDS011;36113;50.742;6.432;2022-11-14T04:49:44;4.93;;;4.00;;
50225;SDS011;36113;50.742;6.432;2022-11-14T04:52:09;6.40;;;4.35;;
50225;SDS011;36113;50.742;6.432;2022-11-14T04:54:35;5.40;;;4.95;;
50225;SDS011;36113;50.742;6.432;2022-11-14T04:57:00;4.47;;;4.07;;
50225;SDS011;36113;50.742;6.432;2022-11-14T04:59:25;4.82;;;4.43;;
50225;SDS011;36113;50.742;6.432;2022-11-14T05:01:51;5.22;;;4.72;;
50225;SDS011;36113;50.742;6.432;2022-11-14T05:04:16;4.95;;;4.55;;
50225;SDS011;36113;50.742;6.432;2022-11-14T05:06:41;5.05;;;4.55;;
50225;SDS011;36113;50.742;6.432;2022-11-14T05:09:07;5.85;;;4.50;;
50225;SDS011;36113;50.742;6.432;2022-11-14T05:11:32;4.82;;;4.32;;
50225;SDS011;36113;50.742;6.432;2022-11-14T05:13:57;4.90;;;4.43;;
50225;SDS011;36113;50.742;6.432;2022-11-14T05:16:23;6.03;;;4.47;;
50225;SDS011;36113;50.742;6.432;2022-11-14T05:18:49;6.38;;;4.28;;
50225;SDS011;36113;50.742;6.432;2022-11-14T05:21:17;5.82;;;4.63;;
50225;SDS011;36113;50.742;6.432;2022-11-14T05:23:42;4.82;;;4.40;;
50225;SDS011;36113;50.742;6.432;2022-11-14T05:26:09;5.05;;;4.55;;
50225;SDS011;36113;50.742;6.432;2022-11-14T05:28:36;6.95;;;5.25;;
50225;SDS011;36113;50.742;6.432;2022-11-14T05:31:05;5.07;;;4.55;;
50225;SDS011;36113;50.742;6.432;2022-11-14T05:33:32;4.88;;;4.47;;
50225;SDS011;36113;50.742;6.432;2022-11-14T05:36:02;5.17;;;4.47;;
50225;SDS011;36113;50.742;6.432;2022-11-14T05:38:31;5.05;;;4.55;;
50225;SDS011;36113;50.742;6.432;2022-11-14T05:40:56;5.70;;;4.82;;
50225;SDS011;36113;50.742;6.432;2022-11-14T05:43:23;10.02;;;4.88;;
50225;SDS011;36113;50.742;6.432;2022-11-14T05:45:48;5.27;;;4.87;;
50225;SDS011;36113;50.742;6.432;2022-11-14T05:48:14;5.50;;;4.97;;
50225;SDS011;36113;50.742;6.432;2022-11-14T05:50:39;7.53;;;5.40;;
50225;SDS011;36113;50.742;6.432;2022-11-14T05:53:07;5.43;;;4.50;;
50225;SDS011;36113;50.742;6.432;2022-11-14T05:55:32;5.13;;;4.65;;
50225;SDS011;36113;50.742;6.432;2022-11-14T05:57:58;4.97;;;4.47;;
50225;SDS011;36113;50.742;6.432;2022-11-14T06:00:24;5.43;;;4.50;;
50225;SDS011;36113;50.742;6.432;2022-11-14T06:02:53;7.40;;;5.30;;
50225;SDS011;36113;50.742;6.432;2022-11-14T06:05:20;6.05;;;5.45;;
50225;SDS011;36113;50.742;6.432;2022-11-14T06:07:46;5.72;;;4.60;;
50225;SDS011;36113;50.742;6.432;2022-11-14T06:10:11;6.15;;;4.97;;
50225;SDS011;36113;50.742;6.432;2022-11-14T06:12:37;6.85;;;5.38;;
50225;SDS011;36113;50.742;6.432;2022-11-14T06:15:03;5.78;;;5.28;;
50225;SDS011;36113;50.742;6.432;2022-11-14T06:17:29;6.82;;;5.50;;
50225;SDS011;36113;50.742;6.432;2022-11-14T06:19:54;6.53;;;5.75;;
50225;SDS011;36113;50.742;6.432;2022-11-14T06:22:19;6.95;;;6.25;;
50225;SDS011;36113;50.742;6.432;2022-11-14T06:24:44;7.03;;;6.30;;
50225;SDS011;36113;50.742;6.432;2022-11-14T06:27:10;7.63;;;6.82;;
50225;SDS011;36113;50.742;6.432;2022-11-14T06:29:35;7.78;;;6.97;;
50225;SDS011;36113;50.742;6.432;2022-11-14T06:32:00;8.93;;;6.65;;
50225;SDS011;36113;50.742;6.432;2022-11-14T06:34:26;12.57;;;6.85;;
50225;SDS011;36113;50.742;6.432;2022-11-14T06:36:51;11.48;;;7.13;;
50225;SDS011;36113;50.742;6.432;2022-11-14T06:39:16;7.75;;;6.35;;
50225;SDS011;36113;50.742;6.432;2022-11-14T06:41:42;8.27;;;6.43;;
50225;SDS011;36113;50.742;6.432;2022-11-14T06:44:07;8.98;;;6.78;;
50225;SDS011;36113;50.742;6.432;2022-11-14T06:46:33;11.82;;;6.78;;
50225;SDS011;36113;50.742;6.432;2022-11-14T06:48:58;8.15;;;7.00;;
50225;SDS011;36113;50.742;6.432;2022-11-14T06:51:24;8.32;;;6.72;;
50225;SDS011;36113;50.742;6.432;2022-11-14T06:53:49;8.38;;;6.60;;
50225;SDS011;36113;50.742;6.432;2022-11-14T06:56:15;7.43;;;5.78;;
50225;SDS011;36113;50.742;6.432;2022-11-14T06:58:43;6.60;;;5.93;;
50225;SDS011;36113;50.742;6.432;2022-11-14T07:01:14;7.72;;;6.13;;
50225;SDS011;36113;50.742;6.432;2022-11-14T07:03:45;6.43;;;5.82;;
50225;SDS011;36113;50.742;6.432;2022-11-14T07:06:12;7.97;;;5.97;;
50225;SDS011;36113;50.742;6.432;2022-11-14T07:08:39;8.23;;;6.07;;
50225;SDS011;36113;50.742;6.432;2022-11-14T07:11:15;9.82;;;6.82;;
50225;SDS011;36113;50.742;6.432;2022-11-14T07:13:49;8.38;;;7.47;;
50225;SDS011;36113;50.742;6.432;2022-11-14T07:18:41;10.05;;;7.88;;
50225;SDS011;36113;50.742;6.432;2022-11-14T07:21:07;8.68;;;7.68;;
50225;SDS011;36113;50.742;6.432;2022-11-14T07:23:34;10.18;;;8.45;;
50225;SDS011;36113;50.742;6.432;2022-11-14T07:26:03;12.20;;;9.25;;
50225;SDS011;36113;50.742;6.432;2022-11-14T07:28:33;11.05;;;8.73;;
50225;SDS011;36113;50.742;6.432;2022-11-14T07:31:02;11.60;;;8.95;;
50225;SDS011;36113;50.742;6.432;2022-11-14T07:33:29;12.60;;;10.43;;
50225;SDS011;36113;50.742;6.432;2022-11-14T07:35:55;17.05;;;10.70;;
50225;SDS011;36113;50.742;6.432;2022-11-14T07:38:20;14.45;;;11.82;;
50225;SDS011;36113;50.742;6.432;2022-11-14T07:40:55;16.13;;;11.30;;
50225;SDS011;36113;50.742;6.432;2022-11-14T07:43:21;16.52;;;11.43;;
50225;SDS011;36113;50.742;6.432;2022-11-14T07:45:47;20.88;;;12.90;;
50225;SDS011;36113;50.742;6.432;2022-11-14T07:48:13;17.52;;;12.70;;
50225;SDS011;36113;50.742;6.432;2022-11-14T07:50:38;17.02;;;11.38;;
50225;SDS011;36113;50.742;6.432;2022-11-14T07:53:03;15.15;;;11.45;;
50225;SDS011;36113;50.742;6.432;2022-11-14T07:55:28;16.35;;;10.95;;
50225;SDS011;36113;50.742;6.432;2022-11-14T07:57:57;16.65;;;11.23;;
50225;SDS011;36113;50.742;6.432;2022-11-14T08:00:23;18.10;;;12.43;;
50225;SDS011;36113;50.742;6.432;2022-11-14T08:02:49;17.02;;;12.25;;
50225;SDS011;36113;50.742;6.432;2022-11-14T08:05:14;15.32;;;11.52;;
50225;SDS011;36113;50.742;6.432;2022-11-14T08:07:40;19.85;;;13.00;;
50225;SDS011;36113;50.742;6.432;2022-11-14T08:10:05;21.98;;;13.27;;
50225;SDS011;36113;50.742;6.432;2022-11-14T08:12:31;23.10;;;14.65;;
50225;SDS011;36113;50.742;6.432;2022-11-14T08:14:56;21.92;;;13.55;;
50225;SDS011;36113;50.742;6.432;2022-11-14T08:17:22;19.20;;;13.60;;
50225;SDS011;36113;50.742;6.432;2022-11-14T08:19:48;24.85;;;15.43;;
50225;SDS011;36113;50.742;6.432;2022-11-14T08:22:14;24.42;;;15.10;;
50225;SDS011;36113;50.742;6.432;2022-11-14T08:24:39;22.85;;;16.08;;
50225;SDS011;36113;50.742;6.432;2022-11-14T08:27:04;21.98;;;15.32;;
50225;SDS011;36113;50.742;6.432;2022-11-14T08:29:30;23.50;;;15.50;;
50225;SDS011;36113;50.742;6.432;2022-11-14T08:31:55;19.60;;;13.60;;
50225;SDS011;36113;50.742;6.432;2022-11-14T08:34:20;24.00;;;14.85;;
50225;SDS011;36113;50.742;6.432;2022-11-14T08:36:47;18.40;;;13.95;;
50225;SDS011;36113;50.742;6.432;2022-11-14T08:39:13;20.65;;;14.68;;
50225;SDS011;36113;50.742;6.432;2022-11-14T08:41:38;23.88;;;14.65;;
50225;SDS011;36113;50.742;6.432;2022-11-14T08:44:03;21.05;;;13.40;;
50225;SDS011;36113;50.742;6.432;2022-11-14T08:46:29;23.88;;;16.25;;
50225;SDS011;36113;50.742;6.432;2022-11-14T08:48:54;21.48;;;14.55;;
50225;SDS011;36113;50.742;6.432;2022-11-14T08:51:19;21.13;;;15.38;;
50225;SDS011;36113;50.742;6.432;2022-11-14T08:53:45;23.83;;;15.88;;
50225;SDS011;36113;50.742;6.432;2022-11-14T08:56:10;22.10;;;15.77;;
50225;SDS011;36113;50.742;6.432;2022-11-14T08:58:35;23.48;;;15.40;;
50225;SDS011;36113;50.742;6.432;2022-11-14T09:01:01;20.98;;;15.05;;
50225;SDS011;36113;50.742;6.432;2022-11-14T09:03:28;26.65;;;16.35;;
50225;SDS011;36113;50.742;6.432;2022-11-14T09:05:53;24.67;;;16.83;;
50225;SDS011;36113;50.742;6.432;2022-11-14T09:08:19;27.98;;;16.35;;
50225;SDS011;36113;50.742;6.432;2022-11-14T09:10:44;25.88;;;16.42;;
50225;SDS011;36113;50.742;6.432;2022-11-14T09:13:10;27.42;;;17.73;;
50225;SDS011;36113;50.742;6.432;2022-11-14T09:15:35;26.73;;;17.27;;
50225;SDS011;36113;50.742;6.432;2022-11-14T09:18:00;26.98;;;17.23;;
50225;SDS011;36113;50.742;6.432;2022-11-14T09:20:26;27.00;;;17.10;;
50225;SDS011;36113;50.742;6.432;2022-11-14T09:22:54;21.70;;;15.23;;
50225;SDS011;36113;50.742;6.432;2022-11-14T09:25:22;26.40;;;17.00;;
50225;SDS011;36113;50.742;6.432;2022-11-14T09:27:47;23.63;;;16.00;;
50225;SDS011;36113;50.742;6.432;2022-11-14T09:30:13;23.40;;;17.10;;
50225;SDS011;36113;50.742;6.432;2022-11-14T09:32:38;21.77;;;15.90;;
50225;SDS011;36113;50.742;6.432;2022-11-14T09:35:04;27.10;;;16.63;;
50225;SDS011;36113;50.742;6.432;2022-11-14T09:37:29;22.40;;;14.60;;
50225;SDS011;36113;50.742;6.432;2022-11-14T09:39:54;25.27;;;15.23;;
50225;SDS011;36113;50.742;6.432;2022-11-14T09:45:19;25.13;;;15.70;;
50225;SDS011;36113;50.742;6.432;2022-11-14T09:50:16;24.98;;;15.98;;
50225;SDS011;36113;50.742;6.432;2022-11-14T09:52:45;25.73;;;16.05;;
50225;SDS011;36113;50.742;6.432;2022-11-14T09:55:17;25.65;;;15.38;;
50225;SDS011;36113;50.742;6.432;2022-11-14T09:57:45;27.60;;;15.45;;
50225;SDS011;36113;50.742;6.432;2022-11-14T10:00:18;23.33;;;14.70;;
50225;SDS011;36113;50.742;6.432;2022-11-14T10:10:51;21.02;;;14.32;;
50225;SDS011;36113;50.742;6.432;2022-11-14T10:16:14;21.77;;;14.05;;
50225;SDS011;36113;50.742;6.432;2022-11-14T10:32:13;9.75;;;6.70;;
50225;SDS011;36113;50.742;6.432;2022-11-14T10:35:03;6.88;;;5.03;;
50225;SDS011;36113;50.742;6.432;2022-11-14T10:37:39;6.07;;;5.47;;
50225;SDS011;36113;50.742;6.432;2022-11-14T10:40:22;5.40;;;4.90;;
50225;SDS011;36113;50.742;6.432;2022-11-14T10:43:13;6.60;;;5.85;;
50225;SDS011;36113;50.742;6.432;2022-11-14T10:45:52;5.80;;;5.28;;
50225;SDS011;36113;50.742;6.432;2022-11-14T10:51:21;5.43;;;4.70;;
50225;SDS011;36113;50.742;6.432;2022-11-14T10:53:53;5.43;;;4.93;;
50225;SDS011;36113;50.742;6.432;2022-11-14T10:56:22;5.93;;;4.35;;
50225;SDS011;36113;50.742;6.432;2022-11-14T10:58:48;6.03;;;4.70;;
50225;SDS011;36113;50.742;6.432;2022-11-14T11:01:37;6.57;;;5.50;;
50225;SDS011;36113;50.742;6.432;2022-11-14T11:04:20;4.35;;;3.95;;
50225;SDS011;36113;50.742;6.432;2022-11-14T11:06:51;4.95;;;4.50;;
50225;SDS011;36113;50.742;6.432;2022-11-14T11:09:26;4.45;;;4.05;;
50225;SDS011;36113;50.742;6.432;2022-11-14T11:12:18;4.00;;;3.50;;
50225;SDS011;36113;50.742;6.432;2022-11-14T11:14:49;6.88;;;4.10;;
50225;SDS011;36113;50.742;6.432;2022-11-14T11:17:37;4.13;;;3.67;;
50225;SDS011;36113;50.742;6.432;2022-11-14T11:20:40;4.10;;;3.80;;
50225;SDS011;36113;50.742;6.432;2022-11-14T11:25:34;3.75;;;3.47;;
50225;SDS011;36113;50.742;6.432;2022-11-14T11:30:35;4.57;;;3.53;;
50225;SDS011;36113;50.742;6.432;2022-11-14T11:33:21;3.85;;;3.55;;
50225;SDS011;36113;50.742;6.432;2022-11-14T11:35:48;4.00;;;3.60;;
50225;SDS011;36113;50.742;6.432;2022-11-14T11:38:15;3.60;;;3.30;;
50225;SDS011;36113;50.742;6.432;2022-11-14T11:40:43;3.10;;;2.80;;
50225;SDS011;36113;50.742;6.432;2022-11-14T11:43:23;2.92;;;2.72;;
50225;SDS011;36113;50.742;6.432;2022-11-14T11:46:17;3.22;;;2.92;;
50225;SDS011;36113;50.742;6.432;2022-11-14T11:48:50;3.65;;;2.97;;
50225;SDS011;36113;50.742;6.432;2022-11-14T11:51:21;3.03;;;2.78;;
50225;SDS011;36113;50.742;6.432;2022-11-14T11:54:02;3.10;;;2.90;;
50225;SDS011;36113;50.742;6.432;2022-11-14T11:56:34;3.58;;;3.20;;
50225;SDS011;36113;50.742;6.432;2022-11-14T11:59:12;3.80;;;3.50;;
50225;SDS011;36113;50.742;6.432;2022-11-14T12:01:45;3.72;;;3.42;;
50225;SDS011;36113;50.742;6.432;2022-11-14T12:04:11;3.65;;;2.92;;
50225;SDS011;36113;50.742;6.432;2022-11-14T12:06:53;3.17;;;2.97;;
50225;SDS011;36113;50.742;6.432;2022-11-14T12:09:28;3.20;;;3.00;;
50225;SDS011;36113;50.742;6.432;2022-11-14T12:12:01;6.30;;;2.97;;
50225;SDS011;36113;50.742;6.432;2022-11-14T12:17:26;4.57;;;3.15;;
50225;SDS011;36113;50.742;6.432;2022-11-14T12:28:22;2.97;;;2.78;;
50225;SDS011;36113;50.742;6.432;2022-11-14T12:31:03;4.93;;;3.70;;
50225;SDS011;36113;50.742;6.432;2022-11-14T12:33:35;3.88;;;3.58;;
50225;SDS011;36113;50.742;6.432;2022-11-14T12:36:05;3.08;;;2.75;;
50225;SDS011;36113;50.742;6.432;2022-11-14T12:38:41;3.72;;;3.42;;
50225;SDS011;36113;50.742;6.432;2022-11-14T12:41:10;3.27;;;3.07;;
50225;SDS011;36113;50.742;6.432;2022-11-14T12:43:37;3.60;;;3.30;;
50225;SDS011;36113;50.742;6.432;2022-11-14T12:46:06;4.15;;;3.80;;
50225;SDS011;36113;50.742;6.432;2022-11-14T12:48:38;3.50;;;3.20;;
50225;SDS011;36113;50.742;6.432;2022-11-14T12:51:46;6.20;;;5.60;;
50225;SDS011;36113;50.742;6.432;2022-11-14T12:53:54;5.18;;;4.68;;
50225;SDS011;36113;50.742;6.432;2022-11-14T12:56:25;4.78;;;4.28;;
50225;SDS011;36113;50.742;6.432;2022-11-14T13:02:15;3.58;;;3.28;;
50225;SDS011;36113;50.742;6.432;2022-11-14T13:10:41;3.80;;;3.50;;
50225;SDS011;36113;50.742;6.432;2022-11-14T13:13:10;3.90;;;3.60;;
50225;SDS011;36113;50.742;6.432;2022-11-14T13:16:19;3.72;;;3.42;;
50225;SDS011;36113;50.742;6.432;2022-11-14T13:19:15;4.28;;;3.88;;
50225;SDS011;36113;50.742;6.432;2022-11-14T13:27:23;4.25;;;3.80;;
50225;SDS011;36113;50.742;6.432;2022-11-14T13:29:55;4.20;;;3.53;;
50225;SDS011;36113;50.742;6.432;2022-11-14T13:35:10;13.02;;;7.93;;
50225;SDS011;36113;50.742;6.432;2022-11-14T13:40:22;4.82;;;4.43;;
50225;SDS011;36113;50.742;6.432;2022-11-14T13:43:19;6.15;;;5.55;;
50225;SDS011;36113;50.742;6.432;2022-11-14T13:46:02;13.00;;;9.57;;
50225;SDS011;36113;50.742;6.432;2022-11-14T13:51:31;5.00;;;4.50;;
50225;SDS011;36113;50.742;6.432;2022-11-14T13:53:57;6.47;;;4.93;;
50225;SDS011;36113;50.742;6.432;2022-11-14T13:56:37;4.82;;;4.40;;
50225;SDS011;36113;50.742;6.432;2022-11-14T14:07:36;6.45;;;5.13;;
50225;SDS011;36113;50.742;6.432;2022-11-14T14:12:56;4.35;;;3.95;;
50225;SDS011;36113;50.742;6.432;2022-11-14T14:15:26;7.00;;;6.13;;
50225;SDS011;36113;50.742;6.432;2022-11-14T14:18:16;5.05;;;4.65;;
50225;SDS011;36113;50.742;6.432;2022-11-14T14:20:54;4.82;;;4.22;;
50225;SDS011;36113;50.742;6.432;2022-11-14T14:24:03;6.07;;;4.43;;
50225;SDS011;36113;50.742;6.432;2022-11-14T14:32:17;9.18;;;5.07;;
50225;SDS011;36113;50.742;6.432;2022-11-14T14:34:43;4.65;;;4.25;;
50225;SDS011;36113;50.742;6.432;2022-11-14T14:40:00;5.15;;;4.65;;
50225;SDS011;36113;50.742;6.432;2022-11-14T14:42:39;4.50;;;4.00;;
50225;SDS011;36113;50.742;6.432;2022-11-14T14:45:16;4.25;;;3.85;;
50225;SDS011;36113;50.742;6.432;2022-11-14T14:50:18;4.70;;;4.03;;
50225;SDS011;36113;50.742;6.432;2022-11-14T14:52:53;3.75;;;3.45;;
50225;SDS011;36113;50.742;6.432;2022-11-14T14:55:24;4.13;;;3.72;;
50225;SDS011;36113;50.742;6.432;2022-11-14T14:57:54;9.50;;;4.28;;
50225;SDS011;36113;50.742;6.432;2022-11-14T15:00:23;4.20;;;3.85;;
50225;SDS011;36113;50.742;6.432;2022-11-14T15:02:56;4.15;;;3.85;;
50225;SDS011;36113;50.742;6.432;2022-11-14T15:05:25;7.43;;;6.45;;
50225;SDS011;36113;50.742;6.432;2022-11-14T15:07:56;11.15;;;9.15;;
50225;SDS011;36113;50.742;6.432;2022-11-14T15:10:25;6.28;;;5.15;;
50225;SDS011;36113;50.742;6.432;2022-11-14T15:12:56;4.20;;;3.90;;
50225;SDS011;36113;50.742;6.432;2022-11-14T15:15:23;10.65;;;9.40;;
50225;SDS011;36113;50.742;6.432;2022-11-14T15:17:52;5.40;;;4.90;;
50225;SDS011;36113;50.742;6.432;2022-11-14T15:20:26;18.55;;;14.00;;
50225;SDS011;36113;50.742;6.432;2022-11-14T15:23:16;9.20;;;7.68;;
50225;SDS011;36113;50.742;6.432;2022-11-14T15:25:44;4.20;;;3.67;;
50225;SDS011;36113;50.742;6.432;2022-11-14T15:28:13;3.58;;;3.30;;
50225;SDS011;36113;50.742;6.432;2022-11-14T15:30:41;13.43;;;10.90;;
50225;SDS011;36113;50.742;6.432;2022-11-14T15:33:24;9.10;;;6.97;;
50225;SDS011;36113;50.742;6.432;2022-11-14T15:36:07;5.25;;;4.55;;
50225;SDS011;36113;50.742;6.432;2022-11-14T15:38:35;12.38;;;8.20;;
50225;SDS011;36113;50.742;6.432;2022-11-14T15:41:08;31.90;;;16.17;;
50225;SDS011;36113;50.742;6.432;2022-11-14T15:43:34;10.27;;;6.32;;
50225;SDS011;36113;50.742;6.432;2022-11-14T15:46:02;22.42;;;13.82;;
50225;SDS011;36113;50.742;6.432;2022-11-14T15:48:28;11.07;;;7.60;;
50225;SDS011;36113;50.742;6.432;2022-11-14T15:50:53;5.03;;;4.15;;
50225;SDS011;36113;50.742;6.432;2022-11-14T15:55:44;14.00;;;10.65;;
50225;SDS011;36113;50.742;6.432;2022-11-14T15:58:09;9.48;;;7.10;;
50225;SDS011;36113;50.742;6.432;2022-11-14T16:00:36;15.07;;;9.30;;
50225;SDS011;36113;50.742;6.432;2022-11-14T16:03:09;8.75;;;6.15;;
50225;SDS011;36113;50.742;6.432;2022-11-14T16:05:38;8.48;;;7.38;;
50225;SDS011;36113;50.742;6.432;2022-11-14T16:08:03;9.10;;;7.35;;
50225;SDS011;36113;50.742;6.432;2022-11-14T16:10:29;11.70;;;9.02;;
50225;SDS011;36113;50.742;6.432;2022-11-14T16:12:54;10.32;;;9.23;;
50225;SDS011;36113;50.742;6.432;2022-11-14T16:15:19;8.05;;;6.10;;
50225;SDS011;36113;50.742;6.432;2022-11-14T16:17:46;15.57;;;10.77;;
50225;SDS011;36113;50.742;6.432;2022-11-14T16:20:15;10.20;;;7.03;;
50225;SDS011;36113;50.742;6.432;2022-11-14T16:22:43;11.73;;;9.10;;
50225;SDS011;36113;50.742;6.432;2022-11-14T16:25:15;11.13;;;8.15;;
50225;SDS011;36113;50.742;6.432;2022-11-14T16:27:44;21.48;;;14.85;;
50225;SDS011;36113;50.742;6.432;2022-11-14T16:30:13;8.20;;;7.32;;